createdAt,value
2022-12-17T00:02:42.051Z,12.58
2022-12-17T00:05:27.763Z,12.64
2022-12-17T00:08:19.021Z,12.60
2022-12-17T00:11:04.310Z,12.70
2022-12-17T00:13:49.572Z,12.50
2022-12-17T00:16:35.193Z,12.50
2022-12-17T00:19:20.273Z,12.46
2022-12-17T00:22:05.429Z,12.47
2022-12-17T00:24:50.526Z,12.43
2022-12-17T00:27:35.823Z,12.40
2022-12-17T00:30:20.794Z,12.43
2022-12-17T00:33:05.956Z,12.47
2022-12-17T00:35:51.148Z,12.40
2022-12-17T00:38:37.460Z,12.39
2022-12-17T00:41:23.170Z,12.47
2022-12-17T00:44:08.402Z,12.39
2022-12-17T00:46:54.438Z,12.37
2022-12-17T00:49:41.201Z,12.34
2022-12-17T00:52:26.375Z,12.23
2022-12-17T00:55:11.736Z,12.30
2022-12-17T00:57:57.174Z,12.28
2022-12-17T01:00:42.455Z,12.25
2022-12-17T01:03:30.667Z,12.18
2022-12-17T01:06:20.977Z,12.17
2022-12-17T01:09:06.307Z,12.16
2022-12-17T01:11:51.518Z,12.08
2022-12-17T01:14:37.188Z,12.11
2022-12-17T01:17:22.477Z,12.14
2022-12-17T01:20:08.113Z,12.16
2022-12-17T01:22:53.225Z,12.05
2022-12-17T01:25:41.964Z,12.05
2022-12-17T01:28:27.170Z,12.05
2022-12-17T01:31:15.745Z,12.03
2022-12-17T01:34:01.302Z,12.09
2022-12-17T01:36:48.330Z,12.13
2022-12-17T01:39:33.289Z,12.13
2022-12-17T01:42:18.207Z,12.20
2022-12-17T01:45:13.902Z,12.18
2022-12-17T01:48:07.245Z,12.13
2022-12-17T01:51:04.960Z,12.17
2022-12-17T01:53:54.792Z,12.05
2022-12-17T01:56:45.019Z,12.02
2022-12-17T01:59:32.026Z,12.00
2022-12-17T02:02:17.389Z,12.04
2022-12-17T02:05:02.898Z,12.11
2022-12-17T02:07:57.320Z,12.03
2022-12-17T02:10:53.131Z,12.03
2022-12-17T02:13:51.012Z,11.97
2022-12-17T02:16:42.236Z,11.83
2022-12-17T02:19:42.795Z,11.93
2022-12-17T02:22:41.103Z,11.94
2022-12-17T02:25:49.242Z,12.03
2022-12-17T02:28:34.862Z,11.94
2022-12-17T02:31:21.163Z,11.99
2022-12-17T02:34:07.200Z,11.91
2022-12-17T02:36:54.216Z,12.02
2022-12-17T02:39:39.628Z,12.07
2022-12-17T02:42:26.267Z,12.13
2022-12-17T02:45:14.014Z,12.20
2022-12-17T02:47:59.413Z,12.28
2022-12-17T02:50:44.934Z,12.46
2022-12-17T02:53:31.900Z,12.40
2022-12-17T02:56:17.443Z,12.50
2022-12-17T02:59:02.743Z,12.55
2022-12-17T03:01:48.178Z,12.52
2022-12-17T03:04:33.215Z,12.50
2022-12-17T03:07:18.370Z,12.55
2022-12-17T03:10:03.631Z,12.52
2022-12-17T03:12:51.011Z,12.58
2022-12-17T03:15:36.205Z,12.65
2022-12-17T03:18:21.520Z,12.72
2022-12-17T03:21:10.724Z,12.55
2022-12-17T03:23:55.923Z,12.64
2022-12-17T03:26:41.369Z,12.54
2022-12-17T03:29:26.630Z,12.53
2022-12-17T03:32:11.874Z,12.46
2022-12-17T03:34:57.124Z,12.57
2022-12-17T03:37:42.406Z,12.58
2022-12-17T03:40:28.351Z,12.45
2022-12-17T03:43:13.508Z,12.55
2022-12-17T03:45:58.969Z,12.52
2022-12-17T03:48:44.235Z,12.53
2022-12-17T03:51:29.433Z,12.57
2022-12-17T03:54:14.778Z,12.56
2022-12-17T03:57:19.799Z,12.62
2022-12-17T04:00:04.924Z,12.66
2022-12-17T04:02:57.698Z,12.62
2022-12-17T04:05:42.948Z,12.64
2022-12-17T04:08:28.155Z,12.68
2022-12-17T04:11:13.613Z,12.55
2022-12-17T04:13:58.863Z,12.67
2022-12-17T04:16:44.157Z,12.73
2022-12-17T04:19:29.178Z,12.69
2022-12-17T04:22:14.396Z,12.78
2022-12-17T04:24:59.713Z,12.77
2022-12-17T04:27:44.861Z,12.82
2022-12-17T04:30:30.211Z,12.84
2022-12-17T04:33:15.388Z,12.88
2022-12-17T04:36:00.648Z,12.89
2022-12-17T04:38:45.937Z,12.93
2022-12-17T04:41:31.160Z,12.90
2022-12-17T04:44:16.138Z,12.92
2022-12-17T04:47:02.539Z,12.94
2022-12-17T04:49:47.791Z,12.94
2022-12-17T04:52:33.031Z,12.95
2022-12-17T04:55:18.355Z,12.91
2022-12-17T04:58:03.750Z,12.95
2022-12-17T05:00:48.956Z,12.82
2022-12-17T05:03:35.199Z,12.69
2022-12-17T05:06:21.123Z,12.63
2022-12-17T05:09:13.858Z,12.61
2022-12-17T05:11:58.721Z,12.69
2022-12-17T05:14:43.847Z,12.66
2022-12-17T05:17:28.747Z,12.77
2022-12-17T05:20:13.988Z,12.80
2022-12-17T05:22:59.179Z,12.82
2022-12-17T05:25:44.444Z,12.82
2022-12-17T05:28:29.763Z,12.80
2022-12-17T05:31:15.955Z,12.87
2022-12-17T05:34:01.216Z,12.90
2022-12-17T05:36:50.972Z,12.96
2022-12-17T05:39:35.875Z,12.84
2022-12-17T05:42:20.855Z,12.90
2022-12-17T05:45:05.989Z,12.87
2022-12-17T05:47:51.301Z,12.86
2022-12-17T05:50:36.407Z,12.92
2022-12-17T05:53:23.577Z,12.99
2022-12-17T05:56:12.451Z,12.94
2022-12-17T05:58:58.710Z,12.93
2022-12-17T06:01:43.946Z,12.96
2022-12-17T06:04:29.993Z,12.93
2022-12-17T06:07:15.110Z,12.97
2022-12-17T06:10:00.308Z,13.02
2022-12-17T06:12:45.681Z,12.95
2022-12-17T06:15:30.905Z,12.90
2022-12-17T06:18:17.445Z,12.97
2022-12-17T06:21:03.891Z,13.05
2022-12-17T06:23:49.131Z,13.09
2022-12-17T06:26:34.511Z,13.04
2022-12-17T06:29:19.772Z,13.03
2022-12-17T06:32:05.009Z,13.04
2022-12-17T06:34:50.459Z,12.92
2022-12-17T06:37:35.787Z,12.88
2022-12-17T06:40:21.039Z,12.94
2022-12-17T06:43:14.511Z,12.86
2022-12-17T06:46:00.020Z,12.90
2022-12-17T06:48:45.252Z,12.76
2022-12-17T06:51:30.319Z,12.81
2022-12-17T06:54:15.562Z,12.80
2022-12-17T06:57:00.845Z,12.78
2022-12-17T06:59:46.663Z,12.77
2022-12-17T07:02:32.081Z,12.76
2022-12-17T07:05:17.600Z,12.81
2022-12-17T07:08:03.002Z,12.82
2022-12-17T07:10:48.242Z,12.88
2022-12-17T07:13:33.670Z,12.92
2022-12-17T07:16:19.306Z,12.95
2022-12-17T07:19:04.790Z,12.96
2022-12-17T07:21:50.051Z,12.95
2022-12-17T07:24:35.304Z,12.98
2022-12-17T07:27:20.359Z,12.97
2022-12-17T07:30:22.556Z,12.97
2022-12-17T07:33:19.796Z,12.99
2022-12-17T07:36:05.077Z,12.98
2022-12-17T07:38:50.674Z,12.95
2022-12-17T07:41:35.932Z,12.99
2022-12-17T07:44:24.075Z,12.96
2022-12-17T07:47:09.347Z,12.98
2022-12-17T07:49:54.966Z,12.96
2022-12-17T07:52:40.388Z,13.04
2022-12-17T07:55:25.674Z,13.15
2022-12-17T07:58:20.114Z,13.21
2022-12-17T08:01:06.029Z,13.22
2022-12-17T08:03:51.328Z,13.21
2022-12-17T08:06:36.625Z,13.21
2022-12-17T08:09:22.314Z,13.27
2022-12-17T08:12:07.585Z,13.27
2022-12-17T08:14:52.854Z,13.30
2022-12-17T08:17:38.107Z,13.24
2022-12-17T08:20:24.194Z,13.29
2022-12-17T08:23:09.454Z,13.35
2022-12-17T08:25:54.725Z,13.33
2022-12-17T08:28:50.532Z,13.15
2022-12-17T08:31:36.338Z,13.07
2022-12-17T08:34:21.888Z,12.91
2022-12-17T08:37:07.104Z,12.91
2022-12-17T08:39:52.578Z,12.76
2022-12-17T08:42:37.899Z,12.80
2022-12-17T08:45:23.658Z,12.77
2022-12-17T08:48:09.000Z,12.89
2022-12-17T08:50:54.336Z,12.90
2022-12-17T08:53:40.092Z,12.89
2022-12-17T08:56:25.405Z,12.87
2022-12-17T08:59:10.775Z,12.98
2022-12-17T09:01:56.154Z,12.98
2022-12-17T09:04:41.123Z,12.99
2022-12-17T09:07:26.246Z,13.04
2022-12-17T09:10:11.326Z,13.12
2022-12-17T09:13:01.137Z,13.15
2022-12-17T09:15:51.338Z,13.16
2022-12-17T09:18:38.623Z,13.19
2022-12-17T09:21:25.339Z,13.05
2022-12-17T09:24:24.328Z,12.92
2022-12-17T09:27:09.774Z,12.94
2022-12-17T09:29:54.959Z,12.90
2022-12-17T09:32:40.151Z,12.95
2022-12-17T09:35:25.320Z,12.85
2022-12-17T09:38:15.172Z,12.69
2022-12-17T09:41:06.129Z,12.64
2022-12-17T09:44:17.878Z,12.54
2022-12-17T09:47:17.040Z,12.44
2022-12-17T09:50:02.842Z,12.46
2022-12-17T09:52:53.148Z,12.68
2022-12-17T09:55:50.589Z,12.74
2022-12-17T09:58:40.872Z,12.76
2022-12-17T10:01:35.974Z,12.90
2022-12-17T10:04:23.532Z,12.99
2022-12-17T10:07:08.902Z,13.06
2022-12-17T10:09:54.706Z,13.13
2022-12-17T10:12:42.385Z,13.11
2022-12-17T10:15:33.300Z,13.22
2022-12-17T10:18:25.750Z,13.23
2022-12-17T10:21:16.579Z,13.27
2022-12-17T10:24:18.781Z,13.26
2022-12-17T10:27:07.532Z,13.38
2022-12-17T10:29:52.988Z,13.36
2022-12-17T10:32:44.283Z,13.46
2022-12-17T10:35:54.493Z,13.60
2022-12-17T10:38:44.405Z,13.75
2022-12-17T10:41:59.642Z,13.75
2022-12-17T10:44:56.005Z,13.65
2022-12-17T10:47:44.354Z,13.71
2022-12-17T10:50:35.531Z,13.71
2022-12-17T10:53:22.704Z,13.86
2022-12-17T10:56:13.652Z,13.82
2022-12-17T10:59:03.737Z,13.82
2022-12-17T11:01:49.638Z,13.82
2022-12-17T11:05:08.027Z,13.81
2022-12-17T11:07:58.746Z,13.81
2022-12-17T11:10:48.643Z,13.83
2022-12-17T11:13:58.536Z,13.84
2022-12-17T11:16:48.223Z,13.85
2022-12-17T11:19:55.243Z,13.88
2022-12-17T11:22:52.404Z,13.98
2022-12-17T11:25:54.396Z,14.01
2022-12-17T11:28:43.216Z,14.02
2022-12-17T11:32:07.648Z,14.01
2022-12-17T11:35:21.906Z,14.13
2022-12-17T11:38:48.626Z,14.21
2022-12-17T11:41:41.503Z,14.21
2022-12-17T11:44:37.284Z,14.28
2022-12-17T11:47:37.401Z,14.38
2022-12-17T11:50:43.815Z,14.37
2022-12-17T11:53:41.115Z,14.44
2022-12-17T11:56:51.239Z,14.51
2022-12-17T12:00:04.262Z,14.59
2022-12-17T12:03:17.006Z,14.61
2022-12-17T12:06:19.905Z,14.55
2022-12-17T12:09:10.862Z,14.54
2022-12-17T12:12:07.327Z,14.48
2022-12-17T12:15:12.586Z,14.56
2022-12-17T12:18:18.756Z,14.63
2022-12-17T12:21:34.462Z,14.72
2022-12-17T12:24:53.832Z,14.78
2022-12-17T12:27:45.097Z,14.75
2022-12-17T12:30:36.718Z,14.78
2022-12-17T12:33:46.902Z,14.76
2022-12-17T12:36:36.157Z,14.67
2022-12-17T12:39:21.747Z,14.71
2022-12-17T12:42:10.155Z,14.76
2022-12-17T12:45:09.964Z,14.77
2022-12-17T12:48:01.620Z,14.82
2022-12-17T12:51:13.519Z,14.87
2022-12-17T12:53:58.466Z,14.90
2022-12-17T12:56:52.444Z,14.87
2022-12-17T12:59:55.745Z,14.90
2022-12-17T13:02:50.821Z,14.89
2022-12-17T13:05:35.432Z,14.94
2022-12-17T13:08:08.025Z,14.97
2022-12-17T13:10:36.183Z,15.01
2022-12-17T13:13:16.331Z,15.03
2022-12-17T13:15:48.078Z,15.08
2022-12-17T13:18:33.381Z,15.10
2022-12-17T13:21:06.024Z,15.12
2022-12-17T13:23:35.769Z,15.14
2022-12-17T13:26:21.725Z,15.23
2022-12-17T13:28:59.055Z,15.24
2022-12-17T13:31:28.965Z,15.27
2022-12-17T13:34:10.548Z,15.29
2022-12-17T13:36:51.667Z,15.37
2022-12-17T13:39:49.980Z,15.38
2022-12-17T13:42:30.141Z,15.45
2022-12-17T13:44:58.488Z,15.49
2022-12-17T13:47:28.464Z,15.51
2022-12-17T13:50:32.291Z,15.54
2022-12-17T13:52:46.335Z,15.56
2022-12-17T13:55:27.323Z,15.60
2022-12-17T13:57:54.270Z,15.59
2022-12-17T14:00:29.954Z,15.58
2022-12-17T14:02:56.777Z,15.56
2022-12-17T14:05:33.261Z,15.61
2022-12-17T14:08:02.590Z,15.62
2022-12-17T14:10:29.926Z,15.62
2022-12-17T14:13:16.156Z,15.57
2022-12-17T14:15:49.921Z,15.52
2022-12-17T14:18:20.730Z,15.49
2022-12-17T14:20:49.456Z,15.48
2022-12-17T14:23:29.119Z,15.46
2022-12-17T14:25:57.104Z,15.45
2022-12-17T14:28:36.117Z,15.42
2022-12-17T14:34:08.523Z,15.44
2022-12-17T14:36:37.784Z,15.49
2022-12-17T14:39:24.819Z,15.49
2022-12-17T14:42:10.795Z,15.46
2022-12-17T14:44:49.230Z,15.42
2022-12-17T14:47:25.563Z,15.40
2022-12-17T14:49:56.746Z,15.38
2022-12-17T14:52:43.937Z,15.34
2022-12-17T14:55:32.704Z,15.30
2022-12-17T14:58:11.575Z,15.25
2022-12-17T15:00:40.379Z,15.24
2022-12-17T15:03:11.479Z,15.19
2022-12-17T15:05:38.254Z,15.18
2022-12-17T15:08:05.667Z,15.19
2022-12-17T15:10:32.362Z,15.18
2022-12-17T15:12:59.115Z,15.15
2022-12-17T15:15:25.747Z,15.12
2022-12-17T15:17:53.230Z,15.10
2022-12-17T15:20:21.082Z,15.12
2022-12-17T15:22:48.124Z,15.12
2022-12-17T15:25:17.808Z,15.11
2022-12-17T15:27:45.376Z,15.12
2022-12-17T15:30:17.560Z,15.10
2022-12-17T15:32:45.054Z,15.07
2022-12-17T15:35:13.355Z,15.03
2022-12-17T15:37:40.667Z,14.99
2022-12-17T15:40:08.198Z,14.97
2022-12-17T15:42:53.261Z,14.96
2022-12-17T15:45:19.988Z,14.93
2022-12-17T15:47:46.715Z,14.90
2022-12-17T15:50:13.445Z,14.91
2022-12-17T15:52:40.080Z,14.89
2022-12-17T15:55:07.039Z,14.86
2022-12-17T15:57:33.731Z,14.86
2022-12-17T16:00:00.356Z,14.85
2022-12-17T16:02:27.138Z,14.83
2022-12-17T16:04:53.992Z,14.83
2022-12-17T16:07:20.698Z,14.82
2022-12-17T16:09:47.539Z,14.81
2022-12-17T16:12:14.518Z,14.79
2022-12-17T16:14:41.288Z,14.76
2022-12-17T16:17:07.972Z,14.73
2022-12-17T16:19:34.726Z,14.72
2022-12-17T16:22:01.431Z,14.69
2022-12-17T16:24:28.101Z,14.69
2022-12-17T16:26:57.182Z,14.67
2022-12-17T16:29:27.677Z,14.66
2022-12-17T16:31:54.361Z,14.62
2022-12-17T16:34:21.055Z,14.60
2022-12-17T16:36:47.671Z,14.58
2022-12-17T16:39:19.195Z,14.55
2022-12-17T16:41:46.301Z,14.56
2022-12-17T16:44:13.200Z,14.51
2022-12-17T16:46:41.889Z,14.53
2022-12-17T16:49:13.263Z,14.48
2022-12-17T16:51:40.633Z,14.46
2022-12-17T16:54:18.863Z,14.44
2022-12-17T16:56:46.207Z,14.44
2022-12-17T16:59:14.495Z,14.42
2022-12-17T17:01:44.796Z,14.39
2022-12-17T17:04:14.203Z,14.37
2022-12-17T17:06:45.210Z,14.37
2022-12-17T17:09:13.130Z,14.36
2022-12-17T17:11:39.939Z,14.33
2022-12-17T17:14:07.691Z,14.34
2022-12-17T17:16:34.831Z,14.34
2022-12-17T17:19:03.721Z,14.31
2022-12-17T17:21:36.146Z,14.33
2022-12-17T17:24:08.270Z,14.33
2022-12-17T17:26:34.860Z,14.35
2022-12-17T17:29:02.071Z,14.28
2022-12-17T17:32:01.238Z,14.28
2022-12-17T17:34:15.938Z,14.25
2022-12-17T17:36:42.878Z,14.26
2022-12-17T17:39:09.684Z,14.25
2022-12-17T17:41:37.020Z,14.26
2022-12-17T17:44:08.950Z,14.27
2022-12-17T17:46:36.225Z,14.25
2022-12-17T17:49:04.891Z,14.29
2022-12-17T17:52:07.832Z,14.32
2022-12-17T17:54:21.613Z,14.36
2022-12-17T17:56:48.409Z,14.36
2022-12-17T17:59:20.193Z,14.35
2022-12-17T18:01:49.705Z,14.34
2022-12-17T18:04:24.029Z,14.33
2022-12-17T18:07:16.458Z,14.26
2022-12-17T18:09:37.468Z,14.27
2022-12-17T18:12:24.333Z,14.24
2022-12-17T18:15:13.594Z,14.24
2022-12-17T18:17:37.878Z,14.22
2022-12-17T18:20:05.089Z,14.22
2022-12-17T18:22:31.779Z,14.17
2022-12-17T18:24:58.432Z,14.14
2022-12-17T18:27:25.165Z,14.09
2022-12-17T18:29:51.850Z,14.06
2022-12-17T18:32:18.576Z,14.04
2022-12-17T18:34:45.183Z,14.06
2022-12-17T18:37:11.866Z,14.07
2022-12-17T18:39:38.681Z,14.08
2022-12-17T18:42:24.056Z,13.96
2022-12-17T18:44:50.743Z,14.00
2022-12-17T18:47:18.799Z,13.98
2022-12-17T18:49:45.568Z,13.96
2022-12-17T18:52:16.647Z,13.91
2022-12-17T18:54:43.898Z,13.86
2022-12-17T18:57:10.953Z,13.82
2022-12-17T18:59:38.559Z,13.79
2022-12-17T19:02:05.331Z,13.75
2022-12-17T19:04:33.219Z,13.72
2022-12-17T19:07:00.140Z,13.72
2022-12-17T19:09:34.437Z,13.71
2022-12-17T19:12:01.658Z,13.69
2022-12-17T19:14:28.331Z,13.71
2022-12-17T19:16:57.897Z,13.73
2022-12-17T19:19:25.659Z,13.73
2022-12-17T19:21:55.036Z,13.73
2022-12-17T19:24:22.894Z,13.66
2022-12-17T19:26:50.457Z,13.72
2022-12-17T19:29:18.597Z,13.66
2022-12-17T19:31:45.775Z,13.71
2022-12-17T19:34:15.111Z,13.72
2022-12-17T19:36:42.667Z,13.72
2022-12-17T19:39:22.203Z,13.73
2022-12-17T19:41:51.807Z,13.74
2022-12-17T19:44:20.589Z,13.74
2022-12-17T19:46:48.081Z,13.74
2022-12-17T19:49:16.322Z,13.72
2022-12-17T19:51:44.508Z,13.74
2022-12-17T19:54:13.062Z,13.74
2022-12-17T19:56:39.790Z,13.72
2022-12-17T19:59:08.172Z,13.70
2022-12-17T20:01:38.164Z,13.68
2022-12-17T20:04:05.868Z,13.65
2022-12-17T20:06:34.616Z,13.60
2022-12-17T20:09:02.482Z,13.58
2022-12-17T20:11:35.523Z,13.53
2022-12-17T20:14:13.249Z,13.50
2022-12-17T20:16:45.944Z,13.50
2022-12-17T20:19:15.944Z,13.44
2022-12-17T20:21:42.806Z,13.42
2022-12-17T20:24:11.213Z,13.39
2022-12-17T20:26:40.362Z,13.36
2022-12-17T20:29:07.603Z,13.31
2022-12-17T20:31:35.298Z,13.10
2022-12-17T20:34:03.685Z,13.13
2022-12-17T20:36:30.830Z,13.03
2022-12-17T20:38:57.547Z,13.10
2022-12-17T20:41:27.687Z,13.10
2022-12-17T20:43:55.563Z,13.12
2022-12-17T20:46:23.640Z,12.97
2022-12-17T20:48:52.188Z,13.06
2022-12-17T20:51:21.976Z,13.10
2022-12-17T20:53:50.838Z,13.11
2022-12-17T20:56:20.195Z,13.10
2022-12-17T20:58:47.382Z,13.13
2022-12-17T21:01:18.735Z,13.14
2022-12-17T21:03:46.865Z,13.02
2022-12-17T21:06:16.223Z,12.97
2022-12-17T21:08:49.272Z,12.99
2022-12-17T21:11:18.553Z,12.95
2022-12-17T21:13:45.695Z,12.98
2022-12-17T21:16:16.023Z,13.00
2022-12-17T21:18:43.267Z,13.02
2022-12-17T21:21:17.107Z,13.00
2022-12-17T21:23:45.246Z,13.00
2022-12-17T21:26:13.792Z,12.95
2022-12-17T21:28:42.462Z,12.90
2022-12-17T21:31:22.061Z,12.85
2022-12-17T21:33:50.281Z,12.82
2022-12-17T21:36:19.831Z,12.83
2022-12-17T21:38:47.153Z,12.81
2022-12-17T21:41:20.679Z,12.83
2022-12-17T21:43:47.723Z,12.84
2022-12-17T21:46:14.625Z,12.78
2022-12-17T21:48:42.718Z,12.80
2022-12-17T21:51:11.493Z,12.72
2022-12-17T21:53:42.387Z,12.68
2022-12-17T21:56:12.925Z,12.68
2022-12-17T21:58:40.926Z,12.67
2022-12-17T22:01:24.921Z,12.65
2022-12-17T22:03:54.465Z,12.65
2022-12-17T22:06:28.956Z,12.63
2022-12-17T22:09:08.190Z,12.62
2022-12-17T22:11:45.088Z,12.55
2022-12-17T22:14:18.968Z,12.49
2022-12-17T22:16:49.465Z,12.46
2022-12-17T22:19:23.202Z,12.44
2022-12-17T22:21:56.379Z,12.34
2022-12-17T22:24:25.499Z,12.31
2022-12-17T22:26:59.545Z,12.21
2022-12-17T22:29:46.373Z,12.23
2022-12-17T22:32:31.528Z,12.24
2022-12-17T22:36:23.072Z,12.04
2022-12-17T22:41:11.186Z,11.92
2022-12-17T22:44:10.253Z,11.79
2022-12-17T22:44:46.299Z,11.81
2022-12-17T22:46:16.374Z,11.66
2022-12-17T22:48:43.059Z,11.69
2022-12-17T22:51:12.453Z,11.75
2022-12-17T22:53:42.199Z,11.67
2022-12-17T22:56:21.373Z,11.73
2022-12-17T22:58:56.848Z,11.79
2022-12-17T23:01:24.232Z,11.80
2022-12-17T23:03:57.822Z,11.63
2022-12-17T23:06:24.811Z,11.65
2022-12-17T23:08:51.584Z,11.59
2022-12-17T23:11:26.739Z,11.54
2022-12-17T23:13:53.999Z,11.53
2022-12-17T23:16:20.998Z,11.59
2022-12-17T23:18:49.581Z,11.57
2022-12-17T23:21:19.363Z,11.56
2022-12-17T23:23:46.597Z,11.61
2022-12-17T23:26:16.839Z,11.57
2022-12-17T23:28:44.735Z,11.53
2022-12-17T23:31:14.087Z,11.45
2022-12-17T23:33:42.324Z,11.40
2022-12-17T23:36:17.817Z,11.40
2022-12-17T23:38:44.676Z,11.48
2022-12-17T23:41:14.276Z,11.40
2022-12-17T23:43:45.090Z,11.37
2022-12-17T23:46:12.777Z,11.36
2022-12-17T23:48:45.372Z,11.41
2022-12-17T23:51:18.313Z,11.30
2022-12-17T23:53:45.411Z,11.37
2022-12-17T23:56:15.260Z,11.43
2022-12-17T23:58:43.165Z,11.36
